sensor_id;sensor_type;location;lat;lon;timestamp;pressure;altitude;pressure_sealevel;temperature;humidity
3796;BME280;1913;50.660;7.834;2022-11-22T00:00:20;94989.44;;;3.69;100.00
3796;BME280;1913;50.660;7.834;2022-11-22T00:03:02;94997.03;;;3.71;100.00
3796;BME280;1913;50.660;7.834;2022-11-22T00:05:34;94997.81;;;3.71;100.00
3796;BME280;1913;50.660;7.834;2022-11-22T00:08:06;94996.03;;;3.72;100.00
3796;BME280;1913;50.660;7.834;2022-11-22T00:10:54;94994.59;;;3.76;100.00
3796;BME280;1913;50.660;7.834;2022-11-22T00:13:40;94989.63;;;3.74;100.00
3796;BME280;1913;50.660;7.834;2022-11-22T00:16:15;94987.22;;;3.73;100.00
3796;BME280;1913;50.660;7.834;2022-11-22T00:19:05;94975.84;;;3.74;100.00
3796;BME280;1913;50.660;7.834;2022-11-22T00:21:34;94970.63;;;3.74;100.00
3796;BME280;1913;50.660;7.834;2022-11-22T00:24:06;94971.44;;;3.74;100.00
3796;BME280;1913;50.660;7.834;2022-11-22T00:26:34;94971.25;;;3.69;100.00
3796;BME280;1913;50.660;7.834;2022-11-22T00:29:06;94948.84;;;3.75;100.00
3796;BME280;1913;50.660;7.834;2022-11-22T00:31:48;94961.84;;;3.75;100.00
3796;BME280;1913;50.660;7.834;2022-11-22T00:34:39;94961.84;;;3.75;100.00
3796;BME280;1913;50.660;7.834;2022-11-22T00:37:16;94957.44;;;3.75;100.00
3796;BME280;1913;50.660;7.834;2022-11-22T00:39:54;94960.16;;;3.80;100.00
3796;BME280;1913;50.660;7.834;2022-11-22T00:42:22;94963.59;;;3.81;100.00
3796;BME280;1913;50.660;7.834;2022-11-22T00:44:51;94964.00;;;3.78;100.00
3796;BME280;1913;50.660;7.834;2022-11-22T00:47:37;94959.97;;;3.82;100.00
3796;BME280;1913;50.660;7.834;2022-11-22T00:50:10;94961.34;;;3.84;100.00
3796;BME280;1913;50.660;7.834;2022-11-22T00:52:38;94960.47;;;3.91;100.00
3796;BME280;1913;50.660;7.834;2022-11-22T00:55:10;94961.44;;;3.96;100.00
3796;BME280;1913;50.660;7.834;2022-11-22T00:57:36;94963.22;;;3.96;100.00
3796;BME280;1913;50.660;7.834;2022-11-22T01:00:20;94951.22;;;3.95;100.00
3796;BME280;1913;50.660;7.834;2022-11-22T01:02:59;94958.59;;;3.98;100.00
3796;BME280;1913;50.660;7.834;2022-11-22T01:05:37;94967.41;;;3.97;100.00
3796;BME280;1913;50.660;7.834;2022-11-22T01:08:17;94966.41;;;3.98;100.00
3796;BME280;1913;50.660;7.834;2022-11-22T01:10:59;94985.59;;;3.97;100.00
3796;BME280;1913;50.660;7.834;2022-11-22T01:13:28;94969.22;;;3.96;100.00
3796;BME280;1913;50.660;7.834;2022-11-22T01:16:34;94979.19;;;3.99;100.00
3796;BME280;1913;50.660;7.834;2022-11-22T01:19:25;94992.97;;;4.00;100.00
3796;BME280;1913;50.660;7.834;2022-11-22T01:22:37;94991.09;;;4.07;100.00
3796;BME280;1913;50.660;7.834;2022-11-22T01:25:33;94993.28;;;4.10;100.00
3796;BME280;1913;50.660;7.834;2022-11-22T01:28:17;94981.88;;;4.11;100.00
3796;BME280;1913;50.660;7.834;2022-11-22T01:30:50;94997.81;;;4.15;100.00
3796;BME280;1913;50.660;7.834;2022-11-22T01:34:03;95008.00;;;4.16;100.00
3796;BME280;1913;50.660;7.834;2022-11-22T01:36:38;95008.66;;;4.12;100.00
3796;BME280;1913;50.660;7.834;2022-11-22T01:39:13;94994.22;;;4.16;100.00
3796;BME280;1913;50.660;7.834;2022-11-22T01:44:52;94993.41;;;4.15;100.00
3796;BME280;1913;50.660;7.834;2022-11-22T01:47:34;95007.22;;;4.16;100.00
3796;BME280;1913;50.660;7.834;2022-11-22T01:50:15;95002.59;;;4.18;100.00
3796;BME280;1913;50.660;7.834;2022-11-22T01:53:03;95000.72;;;4.25;100.00
3796;BME280;1913;50.660;7.834;2022-11-22T01:55:41;94986.72;;;4.26;100.00
3796;BME280;1913;50.660;7.834;2022-11-22T02:01:43;95006.72;;;4.25;100.00
3796;BME280;1913;50.660;7.834;2022-11-22T02:04:20;95012.28;;;4.29;100.00
3796;BME280;1913;50.660;7.834;2022-11-22T02:10:28;95025.50;;;4.27;100.00
3796;BME280;1913;50.660;7.834;2022-11-22T02:13:10;95027.69;;;4.30;100.00
3796;BME280;1913;50.660;7.834;2022-11-22T02:16:03;95035.69;;;4.29;100.00
3796;BME280;1913;50.660;7.834;2022-11-22T02:18:45;95031.44;;;4.35;100.00
3796;BME280;1913;50.660;7.834;2022-11-22T02:21:48;95039.78;;;4.37;100.00
3796;BME280;1913;50.660;7.834;2022-11-22T02:24:44;95038.00;;;4.37;100.00
3796;BME280;1913;50.660;7.834;2022-11-22T02:27:32;95040.03;;;4.35;100.00
3796;BME280;1913;50.660;7.834;2022-11-22T02:29:59;95047.59;;;4.37;100.00
3796;BME280;1913;50.660;7.834;2022-11-22T02:32:25;95041.41;;;4.38;100.00
3796;BME280;1913;50.660;7.834;2022-11-22T02:34:50;95053.94;;;4.41;100.00
3796;BME280;1913;50.660;7.834;2022-11-22T02:37:25;95053.75;;;4.42;100.00
3796;BME280;1913;50.660;7.834;2022-11-22T02:39:56;95040.16;;;4.40;100.00
3796;BME280;1913;50.660;7.834;2022-11-22T02:42:24;95030.56;;;4.41;100.00
3796;BME280;1913;50.660;7.834;2022-11-22T02:44:50;95025.16;;;4.42;100.00
3796;BME280;1913;50.660;7.834;2022-11-22T02:47:15;95028.53;;;4.43;100.00
3796;BME280;1913;50.660;7.834;2022-11-22T02:49:41;95027.38;;;4.39;100.00
3796;BME280;1913;50.660;7.834;2022-11-22T02:52:06;95021.59;;;4.37;100.00
3796;BME280;1913;50.660;7.834;2022-11-22T02:54:32;95020.81;;;4.36;100.00
3796;BME280;1913;50.660;7.834;2022-11-22T02:56:57;95030.47;;;4.29;100.00
3796;BME280;1913;50.660;7.834;2022-11-22T02:59:23;95035.03;;;4.33;100.00
3796;BME280;1913;50.660;7.834;2022-11-22T03:01:48;95028.47;;;4.31;100.00
3796;BME280;1913;50.660;7.834;2022-11-22T03:04:14;95037.13;;;4.25;100.00
3796;BME280;1913;50.660;7.834;2022-11-22T03:06:58;95042.91;;;4.27;100.00
3796;BME280;1913;50.660;7.834;2022-11-22T03:09:25;95037.34;;;4.23;100.00
3796;BME280;1913;50.660;7.834;2022-11-22T03:11:51;95036.97;;;4.20;100.00
3796;BME280;1913;50.660;7.834;2022-11-22T03:14:17;95035.31;;;4.25;100.00
3796;BME280;1913;50.660;7.834;2022-11-22T03:16:43;95047.56;;;4.18;100.00
3796;BME280;1913;50.660;7.834;2022-11-22T03:19:09;95060.44;;;4.13;100.00
3796;BME280;1913;50.660;7.834;2022-11-22T03:21:36;95066.00;;;4.17;100.00
3796;BME280;1913;50.660;7.834;2022-11-22T03:24:01;95070.19;;;4.18;100.00
3796;BME280;1913;50.660;7.834;2022-11-22T03:26:26;95073.56;;;4.18;100.00
3796;BME280;1913;50.660;7.834;2022-11-22T03:28:52;95076.91;;;4.25;100.00
3796;BME280;1913;50.660;7.834;2022-11-22T03:31:17;95089.13;;;4.25;100.00
3796;BME280;1913;50.660;7.834;2022-11-22T03:33:43;95094.09;;;4.26;100.00
3796;BME280;1913;50.660;7.834;2022-11-22T03:36:08;95087.69;;;4.29;100.00
3796;BME280;1913;50.660;7.834;2022-11-22T03:38:34;95081.69;;;4.28;100.00
3796;BME280;1913;50.660;7.834;2022-11-22T03:41:00;95081.31;;;4.25;100.00
3796;BME280;1913;50.660;7.834;2022-11-22T03:43:25;95075.28;;;4.31;100.00
3796;BME280;1913;50.660;7.834;2022-11-22T03:45:51;95082.66;;;4.34;100.00
3796;BME280;1913;50.660;7.834;2022-11-22T03:48:17;95086.41;;;4.38;100.00
3796;BME280;1913;50.660;7.834;2022-11-22T03:50:43;95091.00;;;4.36;100.00
3796;BME280;1913;50.660;7.834;2022-11-22T03:53:09;95095.94;;;4.44;100.00
3796;BME280;1913;50.660;7.834;2022-11-22T03:55:34;95109.75;;;4.45;100.00
3796;BME280;1913;50.660;7.834;2022-11-22T03:58:00;95115.50;;;4.47;100.00
3796;BME280;1913;50.660;7.834;2022-11-22T04:00:25;95114.31;;;4.49;100.00
3796;BME280;1913;50.660;7.834;2022-11-22T04:02:50;95105.13;;;4.47;100.00
3796;BME280;1913;50.660;7.834;2022-11-22T04:05:16;95111.91;;;4.48;100.00
3796;BME280;1913;50.660;7.834;2022-11-22T04:07:41;95104.69;;;4.50;100.00
3796;BME280;1913;50.660;7.834;2022-11-22T04:10:07;95101.50;;;4.48;100.00
3796;BME280;1913;50.660;7.834;2022-11-22T04:12:33;95098.69;;;4.49;100.00
3796;BME280;1913;50.660;7.834;2022-11-22T04:14:59;95109.88;;;4.50;100.00
3796;BME280;1913;50.660;7.834;2022-11-22T04:17:38;95110.69;;;4.50;100.00
3796;BME280;1913;50.660;7.834;2022-11-22T04:20:23;95109.09;;;4.49;100.00
3796;BME280;1913;50.660;7.834;2022-11-22T04:23:18;95112.13;;;4.46;100.00
3796;BME280;1913;50.660;7.834;2022-11-22T04:25:49;95115.88;;;4.50;100.00
3796;BME280;1913;50.660;7.834;2022-11-22T04:28:18;95109.53;;;4.46;100.00
3796;BME280;1913;50.660;7.834;2022-11-22T04:30:44;95108.50;;;4.47;100.00
3796;BME280;1913;50.660;7.834;2022-11-22T04:33:28;95112.13;;;4.46;100.00
3796;BME280;1913;50.660;7.834;2022-11-22T04:35:54;95108.72;;;4.46;100.00
3796;BME280;1913;50.660;7.834;2022-11-22T04:38:20;95101.94;;;4.45;100.00
3796;BME280;1913;50.660;7.834;2022-11-22T04:40:45;95106.31;;;4.44;100.00
3796;BME280;1913;50.660;7.834;2022-11-22T04:43:25;95107.56;;;4.42;100.00
3796;BME280;1913;50.660;7.834;2022-11-22T04:46:10;95101.03;;;4.32;100.00
3796;BME280;1913;50.660;7.834;2022-11-22T04:48:37;95106.31;;;4.26;100.00
3796;BME280;1913;50.660;7.834;2022-11-22T04:51:03;95102.25;;;4.30;100.00
3796;BME280;1913;50.660;7.834;2022-11-22T04:53:49;95103.88;;;4.31;100.00
3796;BME280;1913;50.660;7.834;2022-11-22T04:56:14;95094.69;;;4.28;100.00
3796;BME280;1913;50.660;7.834;2022-11-22T04:58:40;95115.91;;;4.25;100.00
3796;BME280;1913;50.660;7.834;2022-11-22T05:01:05;95102.78;;;4.20;100.00
3796;BME280;1913;50.660;7.834;2022-11-22T05:03:31;95102.97;;;4.19;100.00
3796;BME280;1913;50.660;7.834;2022-11-22T05:06:00;95105.00;;;4.17;100.00
3796;BME280;1913;50.660;7.834;2022-11-22T05:08:26;95112.78;;;4.17;100.00
3796;BME280;1913;50.660;7.834;2022-11-22T05:10:51;95105.41;;;4.14;100.00
3796;BME280;1913;50.660;7.834;2022-11-22T05:13:31;95120.22;;;4.13;100.00
3796;BME280;1913;50.660;7.834;2022-11-22T05:15:58;95125.63;;;4.12;100.00
3796;BME280;1913;50.660;7.834;2022-11-22T05:18:24;95122.44;;;4.10;100.00
3796;BME280;1913;50.660;7.834;2022-11-22T05:20:50;95128.44;;;4.10;100.00
3796;BME280;1913;50.660;7.834;2022-11-22T05:23:16;95116.88;;;4.06;100.00
3796;BME280;1913;50.660;7.834;2022-11-22T05:26:01;95123.47;;;4.02;100.00
3796;BME280;1913;50.660;7.834;2022-11-22T05:28:31;95124.72;;;3.99;100.00
3796;BME280;1913;50.660;7.834;2022-11-22T05:30:56;95135.91;;;4.00;100.00
3796;BME280;1913;50.660;7.834;2022-11-22T05:33:22;95139.91;;;4.02;100.00
3796;BME280;1913;50.660;7.834;2022-11-22T05:35:48;95142.66;;;4.07;100.00
3796;BME280;1913;50.660;7.834;2022-11-22T05:38:13;95147.63;;;4.09;100.00
3796;BME280;1913;50.660;7.834;2022-11-22T05:40:39;95154.00;;;4.13;100.00
3796;BME280;1913;50.660;7.834;2022-11-22T05:43:04;95147.63;;;4.09;100.00
3796;BME280;1913;50.660;7.834;2022-11-22T05:45:30;95145.47;;;4.06;100.00
3796;BME280;1913;50.660;7.834;2022-11-22T05:47:56;95154.84;;;4.07;100.00
3796;BME280;1913;50.660;7.834;2022-11-22T05:50:21;95143.47;;;4.01;100.00
3796;BME280;1913;50.660;7.834;2022-11-22T05:52:47;95153.47;;;4.04;100.00
3796;BME280;1913;50.660;7.834;2022-11-22T05:55:13;95148.91;;;4.00;100.00
3796;BME280;1913;50.660;7.834;2022-11-22T05:57:38;95166.91;;;3.95;100.00
3796;BME280;1913;50.660;7.834;2022-11-22T06:00:04;95165.31;;;3.94;100.00
3796;BME280;1913;50.660;7.834;2022-11-22T06:02:31;95170.53;;;3.94;100.00
3796;BME280;1913;50.660;7.834;2022-11-22T06:04:56;95173.91;;;3.94;100.00
3796;BME280;1913;50.660;7.834;2022-11-22T06:07:22;95169.34;;;3.90;100.00
3796;BME280;1913;50.660;7.834;2022-11-22T06:09:47;95180.16;;;3.87;100.00
3796;BME280;1913;50.660;7.834;2022-11-22T06:12:13;95187.53;;;3.90;100.00
3796;BME280;1913;50.660;7.834;2022-11-22T06:14:39;95194.16;;;3.86;100.00
3796;BME280;1913;50.660;7.834;2022-11-22T06:17:04;95194.81;;;3.81;100.00
3796;BME280;1913;50.660;7.834;2022-11-22T06:19:30;95196.38;;;3.82;100.00
3796;BME280;1913;50.660;7.834;2022-11-22T06:21:55;95208.59;;;3.81;100.00
3796;BME280;1913;50.660;7.834;2022-11-22T06:24:21;95212.78;;;3.82;100.00
3796;BME280;1913;50.660;7.834;2022-11-22T06:26:46;95217.59;;;3.79;100.00
3796;BME280;1913;50.660;7.834;2022-11-22T06:29:12;95218.38;;;3.79;100.00
3796;BME280;1913;50.660;7.834;2022-11-22T06:31:37;95237.16;;;3.81;100.00
3796;BME280;1913;50.660;7.834;2022-11-22T06:34:03;95231.34;;;3.86;100.00
3796;BME280;1913;50.660;7.834;2022-11-22T06:36:30;95237.56;;;3.85;100.00
3796;BME280;1913;50.660;7.834;2022-11-22T06:38:56;95244.50;;;3.91;100.00
3796;BME280;1913;50.660;7.834;2022-11-22T06:41:27;95250.69;;;3.97;100.00
3796;BME280;1913;50.660;7.834;2022-11-22T06:43:54;95254.25;;;4.02;100.00
3796;BME280;1913;50.660;7.834;2022-11-22T06:46:22;95253.22;;;4.10;100.00
3796;BME280;1913;50.660;7.834;2022-11-22T06:48:48;95246.53;;;4.21;100.00
3796;BME280;1913;50.660;7.834;2022-11-22T06:51:17;95246.13;;;4.24;100.00
3796;BME280;1913;50.660;7.834;2022-11-22T06:53:43;95255.91;;;4.28;100.00
3796;BME280;1913;50.660;7.834;2022-11-22T06:56:27;95253.44;;;4.33;100.00
3796;BME280;1913;50.660;7.834;2022-11-22T06:58:53;95263.84;;;4.33;100.00
3796;BME280;1913;50.660;7.834;2022-11-22T07:01:27;95263.25;;;4.38;100.00
3796;BME280;1913;50.660;7.834;2022-11-22T07:03:54;95259.41;;;4.41;100.00
3796;BME280;1913;50.660;7.834;2022-11-22T07:06:23;95266.22;;;4.42;100.00
3796;BME280;1913;50.660;7.834;2022-11-22T07:08:49;95269.56;;;4.49;100.00
3796;BME280;1913;50.660;7.834;2022-11-22T07:11:17;95270.78;;;4.46;100.00
3796;BME280;1913;50.660;7.834;2022-11-22T07:13:43;95274.97;;;4.47;100.00
3796;BME280;1913;50.660;7.834;2022-11-22T07:16:11;95272.75;;;4.51;100.00
3796;BME280;1913;50.660;7.834;2022-11-22T07:18:36;95279.38;;;4.47;100.00
3796;BME280;1913;50.660;7.834;2022-11-22T07:21:07;95281.72;;;4.55;100.00
3796;BME280;1913;50.660;7.834;2022-11-22T07:23:33;95273.06;;;4.61;100.00
3796;BME280;1913;50.660;7.834;2022-11-22T07:25:59;95276.69;;;4.60;100.00
3796;BME280;1913;50.660;7.834;2022-11-22T07:28:25;95287.72;;;4.55;100.00
3796;BME280;1913;50.660;7.834;2022-11-22T07:30:50;95286.50;;;4.58;100.00
3796;BME280;1913;50.660;7.834;2022-11-22T07:33:16;95293.09;;;4.61;100.00
3796;BME280;1913;50.660;7.834;2022-11-22T07:35:41;95279.28;;;4.60;100.00
3796;BME280;1913;50.660;7.834;2022-11-22T07:38:07;95298.25;;;4.67;100.00
3796;BME280;1913;50.660;7.834;2022-11-22T07:40:32;95292.22;;;4.73;100.00
3796;BME280;1913;50.660;7.834;2022-11-22T07:42:58;95293.78;;;4.74;100.00
3796;BME280;1913;50.660;7.834;2022-11-22T07:45:23;95295.00;;;4.72;100.00
3796;BME280;1913;50.660;7.834;2022-11-22T07:47:49;95292.63;;;4.70;100.00
3796;BME280;1913;50.660;7.834;2022-11-22T07:50:14;95291.00;;;4.69;100.00
3796;BME280;1913;50.660;7.834;2022-11-22T07:52:40;95283.84;;;4.65;100.00
3796;BME280;1913;50.660;7.834;2022-11-22T07:55:06;95279.81;;;4.69;100.00
3796;BME280;1913;50.660;7.834;2022-11-22T07:57:32;95279.34;;;4.78;100.00
3796;BME280;1913;50.660;7.834;2022-11-22T07:59:57;95290.16;;;4.75;100.00
3796;BME280;1913;50.660;7.834;2022-11-22T08:02:23;95281.72;;;4.80;100.00
3796;BME280;1913;50.660;7.834;2022-11-22T08:04:49;95282.53;;;4.80;100.00
3796;BME280;1913;50.660;7.834;2022-11-22T08:07:14;95284.03;;;4.95;100.00
3796;BME280;1913;50.660;7.834;2022-11-22T08:09:39;95289.09;;;5.08;100.00
3796;BME280;1913;50.660;7.834;2022-11-22T08:12:05;95284.47;;;5.10;100.00
3796;BME280;1913;50.660;7.834;2022-11-22T08:14:30;95284.09;;;5.32;100.00
3796;BME280;1913;50.660;7.834;2022-11-22T08:16:56;95285.25;;;5.36;100.00
3796;BME280;1913;50.660;7.834;2022-11-22T08:19:22;95273.91;;;5.48;100.00
3796;BME280;1913;50.660;7.834;2022-11-22T08:21:47;95278.16;;;5.43;100.00
3796;BME280;1913;50.660;7.834;2022-11-22T08:24:14;95276.34;;;5.43;100.00
3796;BME280;1913;50.660;7.834;2022-11-22T08:26:40;95278.88;;;5.50;100.00
3796;BME280;1913;50.660;7.834;2022-11-22T08:29:09;95279.16;;;5.42;100.00
3796;BME280;1913;50.660;7.834;2022-11-22T08:31:34;95284.38;;;5.42;100.00
3796;BME280;1913;50.660;7.834;2022-11-22T08:34:00;95284.94;;;5.25;100.00
3796;BME280;1913;50.660;7.834;2022-11-22T08:36:26;95288.38;;;5.19;100.00
3796;BME280;1913;50.660;7.834;2022-11-22T08:38:52;95295.56;;;5.06;100.00
3796;BME280;1913;50.660;7.834;2022-11-22T08:41:17;95295.22;;;4.95;100.00
3796;BME280;1913;50.660;7.834;2022-11-22T08:43:43;95298.25;;;4.92;100.00
3796;BME280;1913;50.660;7.834;2022-11-22T08:46:09;95305.28;;;4.92;100.00
3796;BME280;1913;50.660;7.834;2022-11-22T08:48:35;95313.97;;;5.04;100.00
3796;BME280;1913;50.660;7.834;2022-11-22T08:51:03;95324.94;;;5.13;100.00
3796;BME280;1913;50.660;7.834;2022-11-22T08:53:31;95322.56;;;5.29;100.00
3796;BME280;1913;50.660;7.834;2022-11-22T08:55:58;95314.59;;;5.24;100.00
3796;BME280;1913;50.660;7.834;2022-11-22T08:58:25;95325.16;;;5.29;100.00
3796;BME280;1913;50.660;7.834;2022-11-22T09:00:50;95319.88;;;5.18;100.00
3796;BME280;1913;50.660;7.834;2022-11-22T09:03:16;95332.88;;;5.18;100.00
3796;BME280;1913;50.660;7.834;2022-11-22T09:05:42;95334.28;;;5.20;100.00
3796;BME280;1913;50.660;7.834;2022-11-22T09:08:07;95325.34;;;5.10;100.00
3796;BME280;1913;50.660;7.834;2022-11-22T09:10:33;95338.97;;;5.05;100.00
3796;BME280;1913;50.660;7.834;2022-11-22T09:12:59;95338.38;;;5.10;100.00
3796;BME280;1913;50.660;7.834;2022-11-22T09:15:24;95336.38;;;5.05;100.00
3796;BME280;1913;50.660;7.834;2022-11-22T09:17:50;95342.94;;;5.14;100.00
3796;BME280;1913;50.660;7.834;2022-11-22T09:20:16;95358.69;;;5.19;100.00
3796;BME280;1913;50.660;7.834;2022-11-22T09:22:42;95350.59;;;5.34;100.00
3796;BME280;1913;50.660;7.834;2022-11-22T09:25:07;95353.72;;;5.18;100.00
3796;BME280;1913;50.660;7.834;2022-11-22T09:27:33;95359.09;;;5.23;100.00
3796;BME280;1913;50.660;7.834;2022-11-22T09:29:59;95348.97;;;5.08;100.00
3796;BME280;1913;50.660;7.834;2022-11-22T09:32:25;95348.13;;;5.14;100.00
3796;BME280;1913;50.660;7.834;2022-11-22T09:34:50;95343.41;;;5.73;100.00
3796;BME280;1913;50.660;7.834;2022-11-22T09:37:16;95341.16;;;6.13;100.00
3796;BME280;1913;50.660;7.834;2022-11-22T09:39:44;95328.50;;;6.29;100.00
3796;BME280;1913;50.660;7.834;2022-11-22T09:45:24;95347.56;;;6.29;100.00
3796;BME280;1913;50.660;7.834;2022-11-22T09:53:39;95322.50;;;7.35;100.00
3796;BME280;1913;50.660;7.834;2022-11-22T09:56:10;95319.44;;;7.62;100.00
3796;BME280;1913;50.660;7.834;2022-11-22T09:58:38;95317.25;;;7.71;100.00
3796;BME280;1913;50.660;7.834;2022-11-22T10:03:54;95309.91;;;8.08;100.00
3796;BME280;1913;50.660;7.834;2022-11-22T10:06:30;95303.59;;;8.61;100.00
3796;BME280;1913;50.660;7.834;2022-11-22T10:11:39;95311.72;;;8.93;100.00
3796;BME280;1913;50.660;7.834;2022-11-22T10:14:25;95301.25;;;8.93;100.00
3796;BME280;1913;50.660;7.834;2022-11-22T10:16:56;95323.19;;;8.92;100.00
3796;BME280;1913;50.660;7.834;2022-11-22T10:19:50;95330.97;;;8.42;100.00
3796;BME280;1913;50.660;7.834;2022-11-22T10:22:16;95330.97;;;8.01;100.00
3796;BME280;1913;50.660;7.834;2022-11-22T10:24:43;95328.88;;;7.51;100.00
3796;BME280;1913;50.660;7.834;2022-11-22T10:27:13;95324.97;;;6.83;100.00
3796;BME280;1913;50.660;7.834;2022-11-22T10:29:54;95324.22;;;6.64;100.00
3796;BME280;1913;50.660;7.834;2022-11-22T10:35:26;95312.50;;;5.95;100.00
3796;BME280;1913;50.660;7.834;2022-11-22T10:37:59;95318.78;;;5.87;100.00
3796;BME280;1913;50.660;7.834;2022-11-22T10:46:12;95292.19;;;5.79;100.00
3796;BME280;1913;50.660;7.834;2022-11-22T10:49:04;95285.59;;;5.76;100.00
3796;BME280;1913;50.660;7.834;2022-11-22T10:51:54;95272.94;;;5.61;100.00
3796;BME280;1913;50.660;7.834;2022-11-22T10:57:27;95279.16;;;5.60;100.00
3796;BME280;1913;50.660;7.834;2022-11-22T11:00:18;95269.47;;;5.49;100.00
3796;BME280;1913;50.660;7.834;2022-11-22T11:08:27;95256.84;;;6.85;100.00
3796;BME280;1913;50.660;7.834;2022-11-22T11:10:53;95257.28;;;7.29;100.00
3796;BME280;1913;50.660;7.834;2022-11-22T11:13:24;95249.53;;;7.69;100.00
3796;BME280;1913;50.660;7.834;2022-11-22T11:15:57;95246.16;;;8.14;100.00
3796;BME280;1913;50.660;7.834;2022-11-22T11:18:40;95255.31;;;8.11;100.00
3796;BME280;1913;50.660;7.834;2022-11-22T11:21:12;95244.63;;;7.73;100.00
3796;BME280;1913;50.660;7.834;2022-11-22T11:23:38;95256.84;;;7.20;100.00
3796;BME280;1913;50.660;7.834;2022-11-22T11:28:49;95255.13;;;6.67;100.00
3796;BME280;1913;50.660;7.834;2022-11-22T11:31:15;95258.78;;;6.36;100.00
3796;BME280;1913;50.660;7.834;2022-11-22T11:33:44;95264.19;;;6.22;100.00
3796;BME280;1913;50.660;7.834;2022-11-22T11:41:32;95260.16;;;6.08;100.00
3796;BME280;1913;50.660;7.834;2022-11-22T11:44:03;95256.56;;;6.09;100.00
3796;BME280;1913;50.660;7.834;2022-11-22T11:49:09;95257.16;;;5.93;100.00
3796;BME280;1913;50.660;7.834;2022-11-22T11:51:43;95255.03;;;5.83;100.00
3796;BME280;1913;50.660;7.834;2022-11-22T11:59:14;95247.09;;;5.96;100.00
3796;BME280;1913;50.660;7.834;2022-11-22T12:07:40;95257.31;;;5.98;100.00
3796;BME280;1913;50.660;7.834;2022-11-22T12:13:02;95245.19;;;5.85;100.00
3796;BME280;1913;50.660;7.834;2022-11-22T12:15:53;95250.84;;;5.82;100.00
3796;BME280;1913;50.660;7.834;2022-11-22T12:26:49;95247.16;;;5.71;100.00
3796;BME280;1913;50.660;7.834;2022-11-22T12:29:15;95248.53;;;5.74;100.00
3796;BME280;1913;50.660;7.834;2022-11-22T12:34:21;95256.09;;;5.64;100.00
3796;BME280;1913;50.660;7.834;2022-11-22T12:39:25;95256.81;;;5.71;100.00
3796;BME280;1913;50.660;7.834;2022-11-22T12:41:57;95246.13;;;5.91;100.00
3796;BME280;1913;50.660;7.834;2022-11-22T12:44:35;95239.50;;;5.95;100.00
3796;BME280;1913;50.660;7.834;2022-11-22T12:47:09;95235.28;;;5.94;100.00
3796;BME280;1913;50.660;7.834;2022-11-22T12:49:41;95230.34;;;6.04;100.00
3796;BME280;1913;50.660;7.834;2022-11-22T12:52:21;95230.25;;;6.11;100.00
3796;BME280;1913;50.660;7.834;2022-11-22T12:55:01;95235.97;;;6.01;100.00
3796;BME280;1913;50.660;7.834;2022-11-22T13:00:17;95241.91;;;5.90;100.00
3796;BME280;1913;50.660;7.834;2022-11-22T13:03:06;95233.38;;;5.83;100.00
3796;BME280;1913;50.660;7.834;2022-11-22T13:05:47;95243.09;;;5.75;100.00
3796;BME280;1913;50.660;7.834;2022-11-22T13:08:15;95226.25;;;5.78;100.00
3796;BME280;1913;50.660;7.834;2022-11-22T13:13:23;95237.16;;;5.87;100.00
3796;BME280;1913;50.660;7.834;2022-11-22T13:15:54;95234.63;;;5.98;100.00
3796;BME280;1913;50.660;7.834;2022-11-22T13:18:31;95228.88;;;6.08;100.00
3796;BME280;1913;50.660;7.834;2022-11-22T13:21:24;95233.97;;;6.03;100.00
3796;BME280;1913;50.660;7.834;2022-11-22T13:29:27;95230.56;;;6.03;100.00
3796;BME280;1913;50.660;7.834;2022-11-22T13:35:00;95255.03;;;5.83;100.00
3796;BME280;1913;50.660;7.834;2022-11-22T13:37:28;95227.25;;;5.77;100.00
3796;BME280;1913;50.660;7.834;2022-11-22T13:39:55;95228.75;;;5.85;100.00
3796;BME280;1913;50.660;7.834;2022-11-22T13:42:26;95237.88;;;5.75;100.00
3796;BME280;1913;50.660;7.834;2022-11-22T13:49:52;95252.09;;;5.61;100.00
3796;BME280;1913;50.660;7.834;2022-11-22T13:57:39;95233.38;;;5.52;100.00
3796;BME280;1913;50.660;7.834;2022-11-22T14:02:44;95232.59;;;5.34;100.00
3796;BME280;1913;50.660;7.834;2022-11-22T14:05:20;95247.47;;;5.26;100.00
3796;BME280;1913;50.660;7.834;2022-11-22T14:07:50;95229.03;;;5.28;100.00
3796;BME280;1913;50.660;7.834;2022-11-22T14:10:32;95237.63;;;5.28;100.00
3796;BME280;1913;50.660;7.834;2022-11-22T14:13:18;95229.03;;;5.28;100.00
3796;BME280;1913;50.660;7.834;2022-11-22T14:15:59;95223.75;;;5.35;100.00
3796;BME280;1913;50.660;7.834;2022-11-22T14:33:02;95218.53;;;5.35;100.00
3796;BME280;1913;50.660;7.834;2022-11-22T14:35:33;95222.59;;;5.31;100.00
3796;BME280;1913;50.660;7.834;2022-11-22T14:40:39;95220.78;;;5.31;100.00
3796;BME280;1913;50.660;7.834;2022-11-22T14:43:21;95221.94;;;5.35;100.00
3796;BME280;1913;50.660;7.834;2022-11-22T14:45:51;95239.81;;;5.32;100.00
3796;BME280;1913;50.660;7.834;2022-11-22T14:48:19;95229.63;;;5.30;100.00
3796;BME280;1913;50.660;7.834;2022-11-22T14:51:07;95234.97;;;5.35;100.00
3796;BME280;1913;50.660;7.834;2022-11-22T14:54:20;95226.72;;;5.38;100.00
3796;BME280;1913;50.660;7.834;2022-11-22T14:56:35;95230.09;;;5.39;100.00
3796;BME280;1913;50.660;7.834;2022-11-22T15:02:04;95220.06;;;5.42;100.00
3796;BME280;1913;50.660;7.834;2022-11-22T15:10:21;95199.84;;;5.19;100.00
3796;BME280;1913;50.660;7.834;2022-11-22T15:15:37;95209.84;;;5.22;100.00
3796;BME280;1913;50.660;7.834;2022-11-22T15:20:44;95213.91;;;5.18;100.00
3796;BME280;1913;50.660;7.834;2022-11-22T15:25:40;95224.31;;;5.18;100.00
3796;BME280;1913;50.660;7.834;2022-11-22T15:28:17;95226.34;;;5.16;100.00
3796;BME280;1913;50.660;7.834;2022-11-22T15:30:44;95230.47;;;5.24;100.00
3796;BME280;1913;50.660;7.834;2022-11-22T15:38:35;95241.91;;;5.23;100.00
3796;BME280;1913;50.660;7.834;2022-11-22T15:41:05;95245.31;;;5.23;100.00
3796;BME280;1913;50.660;7.834;2022-11-22T15:43:30;95252.03;;;5.31;100.00
3796;BME280;1913;50.660;7.834;2022-11-22T15:45:56;95251.66;;;5.27;100.00
3796;BME280;1913;50.660;7.834;2022-11-22T15:48:28;95256.88;;;5.27;100.00
3796;BME280;1913;50.660;7.834;2022-11-22T15:53:41;95243.25;;;5.25;100.00
3796;BME280;1913;50.660;7.834;2022-11-22T15:56:44;95269.31;;;5.25;100.00
3796;BME280;1913;50.660;7.834;2022-11-22T16:01:53;95267.84;;;5.29;100.00
3796;BME280;1913;50.660;7.834;2022-11-22T16:04:32;95268.88;;;5.28;100.00
3796;BME280;1913;50.660;7.834;2022-11-22T16:07:00;95282.06;;;5.34;100.00
3796;BME280;1913;50.660;7.834;2022-11-22T16:09:34;95282.84;;;5.34;100.00
3796;BME280;1913;50.660;7.834;2022-11-22T16:12:05;95295.53;;;5.31;100.00
3796;BME280;1913;50.660;7.834;2022-11-22T16:19:50;95286.69;;;5.32;100.00